Time;durP1;ratioP1;P1;durP2;ratioP2;P2;SDS_P1;SDS_P2;PMS_P1;PMS_P2;Temp;Humidity;BMP_temperature;BMP_pressure;BME280_temperature;BME280_humidity;BME280_pressure;Samples;Min_cycle;Max_cycle;Signal;HPM_P1;HPM_P2
2021/09/02 00:02:09;;;;;;;23.42;11.73;;;;;;;13.67;100.00;99610.49;3944794;88;21159;-85
2021/09/02 00:08:10;;;;;;;21.37;11.75;;;;;;;13.69;100.00;99606.75;3944575;88;21076;-85
2021/09/02 00:14:12;;;;;;;20.00;11.83;;;;;;;13.67;100.00;99600.86;3944949;88;21130;-85
2021/09/02 00:20:22;;;;;;;18.30;11.05;;;;;;;13.63;100.00;99605.53;3940964;88;21121;-84
2021/09/02 00:26:23;;;;;;;18.60;11.05;;;;;;;13.59;100.00;99615.12;3934828;88;21075;-85
2021/09/02 00:32:25;;;;;;;18.42;11.83;;;;;;;13.61;100.00;99614.73;3942326;88;21179;-84
2021/09/02 00:38:27;;;;;;;21.85;11.83;;;;;;;13.58;100.00;99620.42;3943185;88;21067;-86
2021/09/02 00:44:42;;;;;;;17.32;11.12;;;;;;;13.56;100.00;99621.98;3939799;88;21052;-84
2021/09/02 00:57:15;;;;;;;19.20;13.10;;;;;;;13.53;100.00;99630.39;3938403;88;21040;-85
2021/09/02 01:03:20;;;;;;;24.12;12.20;;;;;;;13.53;100.00;99625.50;3937897;88;21167;-85
2021/09/02 01:09:26;;;;;;;24.35;12.40;;;;;;;13.52;100.00;99626.65;3940699;88;21195;-84
2021/09/02 01:15:28;;;;;;;20.12;12.18;;;;;;;13.51;100.00;99625.08;3939164;88;21107;-85
2021/09/02 01:21:29;;;;;;;23.05;12.95;;;;;;;13.49;100.00;99630.16;3950685;88;21019;-87
2021/09/02 01:27:30;;;;;;;19.12;11.63;;;;;;;13.49;100.00;99631.53;3947893;88;21056;-85
2021/09/02 01:33:34;;;;;;;19.35;12.80;;;;;;;13.46;100.00;99626.22;3945322;87;21095;-84
2021/09/02 01:39:37;;;;;;;24.02;12.65;;;;;;;13.42;100.00;99623.23;3937503;88;21655;-85
2021/09/02 01:45:39;;;;;;;19.80;12.50;;;;;;;13.41;100.00;99621.06;3940892;88;21139;-85
2021/09/02 01:58:52;;;;;;;23.83;14.00;;;;;;;13.37;100.00;99617.49;3950722;88;21614;-85
2021/09/02 02:05:06;;;;;;;23.02;14.30;;;;;;;13.34;100.00;99621.58;3949266;88;21091;-85
2021/09/02 02:11:18;;;;;;;22.65;13.22;;;;;;;13.28;100.00;99619.73;3940619;88;21151;-85
2021/09/02 02:17:20;;;;;;;21.52;13.55;;;;;;;13.27;100.00;99614.05;3971508;87;21542;-85
2021/09/02 02:23:22;;;;;;;22.17;13.08;;;;;;;13.25;100.00;99609.50;3975768;88;21079;-85
2021/09/02 02:29:25;;;;;;;24.32;14.00;;;;;;;13.18;100.00;99610.02;3973225;88;21085;-86
2021/09/02 02:35:26;;;;;;;23.98;14.50;;;;;;;13.13;100.00;99611.72;3973509;87;21137;-84
2021/09/02 02:41:29;;;;;;;20.88;13.58;;;;;;;13.09;100.00;99611.68;3975457;88;21108;-84
2021/09/02 02:47:30;;;;;;;23.50;14.38;;;;;;;13.09;100.00;99610.91;3997698;88;21842;-84
2021/09/02 02:53:35;;;;;;;22.50;13.58;;;;;;;13.05;100.00;99620.48;3996048;88;21180;-84
2021/09/02 02:59:36;;;;;;;24.45;14.30;;;;;;;13.04;100.00;99614.79;3991858;88;21052;-84
2021/09/02 03:05:37;;;;;;;27.40;15.30;;;;;;;13.05;100.00;99612.23;4000562;88;21148;-84
2021/09/02 03:11:49;;;;;;;25.37;14.03;;;;;;;13.07;100.00;99614.61;3978892;88;21090;-85
2021/09/02 03:17:50;;;;;;;26.33;14.98;;;;;;;13.09;100.00;99610.91;3997071;88;21144;-84
2021/09/02 03:23:51;;;;;;;30.97;14.80;;;;;;;13.05;100.00;99620.48;3996204;88;21107;-84
2021/09/02 03:29:52;;;;;;;24.52;15.43;;;;;;;13.02;100.00;99615.73;3994273;88;21760;-84
2021/09/02 03:35:54;;;;;;;24.20;14.73;;;;;;;12.96;100.00;99626.03;3998727;88;21156;-85
2021/09/02 03:41:55;;;;;;;21.17;14.55;;;;;;;12.95;100.00;99631.33;3999051;88;21079;-85
2021/09/02 03:48:09;;;;;;;24.25;16.10;;;;;;;12.97;100.00;99637.22;3999307;88;21153;-85
2021/09/02 03:54:17;;;;;;;24.43;16.27;;;;;;;12.97;100.00;99639.39;3998375;88;21565;-85
2021/09/02 04:00:22;;;;;;;29.67;15.85;;;;;;;12.98;100.00;99641.00;3998877;88;21133;-84
2021/09/02 04:06:23;;;;;;;31.45;16.23;;;;;;;13.00;100.00;99646.12;3996142;88;21091;-85
2021/09/02 04:12:25;;;;;;;33.10;16.75;;;;;;;13.05;100.00;99652.66;3998194;88;21087;-85
2021/09/02 04:18:28;;;;;;;27.60;17.50;;;;;;;13.05;100.00;99656.78;3975422;88;21079;-85
2021/09/02 04:24:31;;;;;;;27.17;15.38;;;;;;;13.04;100.00;99650.52;3971890;88;21114;-84
2021/09/02 04:30:37;;;;;;;27.58;16.17;;;;;;;13.05;100.00;99663.08;3981009;85;26498;-84
2021/09/02 04:36:38;;;;;;;25.32;15.50;;;;;;;13.05;100.00;99656.21;4021405;87;21377;-84
2021/09/02 04:42:39;;;;;;;26.45;16.35;;;;;;;13.07;100.00;99662.70;4021588;87;21079;-85
2021/09/02 04:48:41;;;;;;;22.62;14.87;;;;;;;13.09;100.00;99661.76;4015288;87;21036;-85
2021/09/02 04:54:42;;;;;;;25.10;16.00;;;;;;;13.12;100.00;99668.67;4026327;87;21132;-84
2021/09/02 05:00:48;;;;;;;24.55;16.45;;;;;;;13.16;100.00;99676.94;4024766;87;21012;-85
2021/09/02 05:06:56;;;;;;;28.27;17.30;;;;;;;13.20;100.00;99680.54;4005699;87;21088;-85
2021/09/02 05:12:58;;;;;;;25.77;16.17;;;;;;;13.27;100.00;99688.85;4015792;87;21039;-85
2021/09/02 05:19:03;;;;;;;24.80;16.42;;;;;;;13.32;100.00;99692.08;3945736;88;21191;-84
2021/09/02 05:31:43;;;;;;;27.37;16.20;;;;;;;13.39;100.00;99700.39;3880692;89;21549;-85
2021/09/02 05:37:45;;;;;;;26.30;15.72;;;;;;;13.47;100.00;99704.00;3984277;87;21107;-85
2021/09/02 05:43:46;;;;;;;29.45;14.98;;;;;;;13.57;100.00;99707.45;3989983;87;21607;-85
2021/09/02 05:49:53;;;;;;;24.72;14.70;;;;;;;13.64;100.00;99704.80;3973063;87;21064;-85
2021/09/02 05:56:04;;;;;;;24.05;13.60;;;;;;;13.73;100.00;99713.52;3980925;87;22165;-85
2021/09/02 06:02:06;;;;;;;22.02;11.65;;;;;;;13.82;100.00;99712.62;4004138;87;21995;-85
2021/09/02 06:08:10;;;;;;;20.35;10.90;;;;;;;13.93;100.00;99719.02;3981458;87;21274;-85
2021/09/02 06:14:11;;;;;;;24.20;11.53;;;;;;;14.01;100.00;99722.84;3987936;87;21643;-85
2021/09/02 06:20:13;;;;;;;17.90;9.55;;;;;;;14.19;100.00;99728.47;3987744;87;21091;-86
2021/09/02 06:26:15;;;;;;;15.20;9.60;;;;;;;14.42;100.00;99721.41;3998973;87;21226;-85
2021/09/02 06:32:26;;;;;;;19.52;8.50;;;;;;;14.63;100.00;99730.61;3999160;87;21087;-85
2021/09/02 06:38:32;;;;;;;18.05;10.13;;;;;;;14.73;100.00;99731.27;3992462;87;21134;-85
2021/09/02 06:44:33;;;;;;;19.17;10.82;;;;;;;14.81;100.00;99741.75;3974969;87;21152;-87
2021/09/02 06:50:40;;;;;;;16.02;8.95;;;;;;;14.85;100.00;99744.72;3983347;87;21546;-85
2021/09/02 06:56:42;;;;;;;22.27;11.28;;;;;;;14.92;100.00;99754.42;3995965;87;21020;-85
2021/09/02 07:02:51;;;;;;;13.88;9.63;;;;;;;14.98;100.00;99764.48;3980573;87;21662;-85
2021/09/02 07:08:53;;;;;;;15.58;9.23;;;;;;;15.04;100.00;99767.08;3984677;87;21643;-85
2021/09/02 07:14:54;;;;;;;18.25;9.23;;;;;;;15.18;100.00;99772.08;4004817;87;21684;-86
2021/09/02 07:20:57;;;;;;;15.28;8.00;;;;;;;15.26;100.00;99773.70;4027068;87;21103;-85
2021/09/02 07:26:59;;;;;;;15.32;7.20;;;;;;;15.42;100.00;99783.86;4025146;87;21047;-83
2021/09/02 07:33:02;;;;;;;11.88;7.65;;;;;;;15.63;100.00;99790.82;4021705;87;21144;-85
2021/09/02 07:39:10;;;;;;;17.75;9.28;;;;;;;15.91;100.00;99792.86;4015046;87;21104;-85
2021/09/02 07:45:15;;;;;;;17.40;8.38;;;;;;;16.14;99.86;99802.19;4005439;87;21063;-84
2021/09/02 07:51:19;;;;;;;16.93;8.78;;;;;;;16.21;99.11;99803.59;4025200;87;21099;-85
2021/09/02 07:57:20;;;;;;;11.57;8.13;;;;;;;16.36;98.75;99803.80;4025619;86;21067;-86
2021/09/02 08:03:22;;;;;;;10.05;6.30;;;;;;;16.57;97.45;99801.08;3788817;87;5540783;-86
2021/09/02 08:09:24;;;;;;;10.23;6.37;;;;;;;16.65;96.65;99806.20;3795540;92;21104;-85
2021/09/02 08:15:27;;;;;;;9.43;5.62;;;;;;;16.67;95.50;99805.80;3818430;90;21058;-85
2021/09/02 08:21:30;;;;;;;12.00;6.40;;;;;;;16.63;94.93;99810.55;3893002;90;21069;-87
2021/09/02 08:34:01;;;;;;;10.63;5.90;;;;;;;16.62;94.24;99818.63;3911507;89;21163;-86
2021/09/02 08:40:02;;;;;;;9.60;6.05;;;;;;;16.47;93.54;99824.77;3944191;89;21109;-85
2021/09/02 08:46:05;;;;;;;14.00;5.70;;;;;;;16.61;93.05;99825.34;4001040;88;21587;-86
2021/09/02 08:52:13;;;;;;;9.75;6.22;;;;;;;16.56;92.02;99823.77;3999412;88;22582;-86
2021/09/02 08:58:17;;;;;;;9.13;7.50;;;;;;;16.61;92.36;99815.67;4000824;88;21104;-87
2021/09/02 09:04:19;;;;;;;10.80;7.47;;;;;;;16.79;92.46;99811.71;4047544;87;21705;-86
2021/09/02 09:10:31;;;;;;;12.75;7.28;;;;;;;17.03;91.97;99817.81;4061362;87;21107;-86
2021/09/02 09:17:06;;;;;;;12.93;7.25;;;;;;;17.40;91.18;99815.16;4063288;86;21545;-86
2021/09/02 09:23:07;;;;;;;8.95;5.72;;;;;;;17.32;90.13;99815.74;4119451;86;21068;-86
2021/09/02 09:29:30;;;;;;;12.50;6.28;;;;;;;17.59;89.43;99809.95;4093606;86;21546;-86
2021/09/02 09:35:39;;;;;;;8.65;6.20;;;;;;;18.07;89.63;99808.11;4116214;85;21057;-86
2021/09/02 09:42:06;;;;;;;9.25;4.55;;;;;;;18.33;88.41;99810.91;4103798;86;21103;-86
2021/09/02 09:48:34;;;;;;;6.87;4.28;;;;;;;19.21;87.63;99808.17;4099979;85;21104;-86
2021/09/02 09:54:36;;;;;;;7.33;4.35;;;;;;;19.49;85.95;99810.66;4099566;86;21579;-86
2021/09/02 10:00:40;;;;;;;8.15;4.85;;;;;;;19.64;84.43;99814.03;4105050;85;21052;-86
2021/09/02 10:06:42;;;;;;;7.80;3.75;;;;;;;19.98;82.70;99818.34;4101019;86;21064;-85
2021/09/02 10:12:46;;;;;;;5.47;3.87;;;;;;;20.06;82.34;99815.64;4094538;85;21127;-85
2021/09/02 10:18:47;;;;;;;7.85;3.92;;;;;;;20.38;82.21;99819.38;4097749;86;21523;-85
2021/09/02 10:24:49;;;;;;;6.72;4.30;;;;;;;20.72;81.66;99809.51;4090835;85;21092;-85
2021/09/02 10:30:58;;;;;;;8.90;4.33;;;;;;;21.18;80.78;99811.67;4110649;86;21090;-86
2021/09/02 10:36:59;;;;;;;6.75;3.77;;;;;;;22.10;79.01;99809.81;4116084;85;21094;-85
2021/09/02 10:43:01;;;;;;;9.18;2.95;;;;;;;21.94;77.41;99819.52;4105679;85;21084;-86
2021/09/02 10:49:36;;;;;;;5.20;3.20;;;;;;;22.89;76.67;99820.26;4098986;86;22220;-86
2021/09/02 10:55:58;;;;;;;7.42;4.47;;;;;;;23.29;74.97;99813.81;4111114;84;21104;-86
2021/09/02 11:01:59;;;;;;;5.10;4.30;;;;;;;23.02;73.97;99816.91;4090238;85;21135;-86
2021/09/02 11:08:00;;;;;;;6.28;3.80;;;;;;;22.51;73.16;99827.58;4095078;85;21056;-85
2021/09/02 11:14:02;;;;;;;10.45;4.83;;;;;;;21.77;72.12;99830.45;4097534;86;22269;-86
2021/09/02 11:20:20;;;;;;;7.55;4.17;;;;;;;21.16;72.47;99832.78;4085546;86;21499;-85
2021/09/02 11:26:48;;;;;;;8.40;5.22;;;;;;;20.59;72.19;99835.75;4071799;86;21055;-86
2021/09/02 11:33:00;;;;;;;10.85;5.05;;;;;;;20.16;71.83;99830.03;4074995;86;21047;-86
2021/09/02 11:39:08;;;;;;;7.90;4.75;;;;;;;19.96;71.18;99840.81;4085641;86;21032;-86
2021/09/02 11:45:10;;;;;;;8.80;5.50;;;;;;;19.55;71.26;99840.93;4063651;86;21643;-86
2021/09/02 11:51:22;;;;;;;6.37;4.40;;;;;;;19.23;71.60;99840.45;4085237;86;21752;-86
2021/09/02 11:57:40;;;;;;;9.20;4.03;;;;;;;18.95;71.00;99844.12;4066877;86;21111;-85
2021/09/02 12:03:49;;;;;;;7.58;4.33;;;;;;;18.78;71.57;99841.67;4095920;86;21128;-86
2021/09/02 12:09:52;;;;;;;10.63;4.35;;;;;;;18.93;71.90;99836.80;4076677;86;21518;-86
2021/09/02 12:16:17;;;;;;;6.10;3.98;;;;;;;18.86;71.16;99829.33;4092657;86;21081;-85
2021/09/02 12:22:25;;;;;;;8.20;4.10;;;;;;;18.90;71.39;99823.16;4115589;85;21168;-85
2021/09/02 12:29:13;;;;;;;5.67;4.00;;;;;;;19.22;71.80;99825.59;4102198;85;21608;-86
2021/09/02 12:35:18;;;;;;;6.87;4.08;;;;;;;19.24;71.19;99831.53;4096646;86;21555;-85
2021/09/02 12:41:26;;;;;;;9.95;3.83;;;;;;;19.22;70.96;99820.84;4092985;86;21095;-87
2021/09/02 12:47:29;;;;;;;6.40;3.95;;;;;;;19.15;70.69;99823.70;4097688;85;21635;-85
2021/09/02 12:53:30;;;;;;;7.10;3.70;;;;;;;19.08;70.25;99814.64;4102202;85;21667;-86
2021/09/02 12:59:31;;;;;;;4.95;3.60;;;;;;;19.12;69.97;99812.02;4107287;85;21467;-86
2021/09/02 13:05:50;;;;;;;8.43;3.77;;;;;;;19.18;70.45;99813.16;4101659;85;21086;-86
2021/09/02 13:11:51;;;;;;;18.95;4.12;;;;;;;19.25;69.69;99809.50;4103033;85;21179;-86
2021/09/02 13:17:53;;;;;;;5.40;3.80;;;;;;;19.31;69.63;99807.28;4106013;85;21578;-86
2021/09/02 13:23:54;;;;;;;8.75;3.60;;;;;;;19.17;68.91;99806.64;4114136;86;21084;-85
2021/09/02 13:29:56;;;;;;;6.15;3.47;;;;;;;19.02;69.03;99803.81;4096454;85;21646;-85
2021/09/02 13:42:41;;;;;;;6.05;3.47;;;;;;;19.31;68.99;99787.85;3863080;91;21110;-85
2021/09/02 13:48:52;;;;;;;9.95;3.20;;;;;;;19.30;68.74;99796.59;3859042;91;21608;-84
2021/09/02 13:54:53;;;;;;;5.65;3.10;;;;;;;18.98;68.79;99794.75;3866421;91;21182;-85
2021/09/02 14:00:59;;;;;;;5.03;3.27;;;;;;;18.79;69.10;99800.87;3866838;91;21066;-86
2021/09/02 14:07:01;;;;;;;4.40;2.95;;;;;;;18.52;69.33;99800.70;3867078;91;21212;-85
2021/09/02 14:13:04;;;;;;;6.05;3.75;;;;;;;18.31;69.25;99803.01;3862194;91;21091;-85
2021/09/02 14:19:06;;;;;;;6.12;3.87;;;;;;;18.09;69.49;99808.50;3863745;91;21054;-86
2021/09/02 14:25:08;;;;;;;6.62;3.98;;;;;;;17.95;69.69;99812.74;3857423;91;21109;-85
2021/09/02 14:31:11;;;;;;;9.58;4.10;;;;;;;17.85;70.37;99816.38;3865342;91;21135;-85
2021/09/02 14:37:14;;;;;;;7.67;3.72;;;;;;;17.81;70.81;99815.59;3859590;91;21747;-86
2021/09/02 14:43:16;;;;;;;6.42;3.45;;;;;;;17.76;70.98;99817.39;3843281;91;21640;-86
2021/09/02 14:49:21;;;;;;;7.03;3.58;;;;;;;17.76;71.12;99812.47;3837164;91;21122;-85
2021/09/02 14:55:23;;;;;;;8.08;3.42;;;;;;;17.80;71.48;99803.53;3844485;91;21079;-85
2021/09/02 15:01:24;;;;;;;6.97;4.03;;;;;;;17.80;71.67;99803.53;3839699;91;21142;-85
2021/09/02 15:07:27;;;;;;;10.40;5.00;;;;;;;17.79;71.90;99790.89;3846851;91;21085;-85
2021/09/02 15:13:30;;;;;;;9.95;4.37;;;;;;;17.75;72.04;99793.66;3801114;92;21752;-84
2021/09/02 15:19:32;;;;;;;9.10;5.15;;;;;;;17.70;72.37;99797.44;3808918;91;21080;-86
2021/09/02 15:25:33;;;;;;;13.10;5.62;;;;;;;17.70;72.55;99797.44;3787320;91;21499;-85
2021/09/02 15:31:34;;;;;;;10.95;5.87;;;;;;;17.66;73.00;99796.09;3797113;91;21125;-85
2021/09/02 15:37:36;;;;;;;9.33;4.95;;;;;;;17.60;73.06;99788.60;3795866;92;21116;-85
2021/09/02 15:43:38;;;;;;;9.08;5.37;;;;;;;17.57;73.27;99783.88;3763247;93;21115;-85
2021/09/02 15:49:43;;;;;;;8.28;4.55;;;;;;;17.49;73.25;99785.09;3775936;93;21687;-86
2021/09/02 15:55:51;;;;;;;9.43;5.22;;;;;;;17.43;73.74;99785.28;3761857;93;21196;-85
2021/09/02 16:01:55;;;;;;;9.30;4.90;;;;;;;17.34;73.85;99787.70;3771033;93;21073;-86
2021/09/02 16:07:56;;;;;;;12.00;5.33;;;;;;;17.29;74.29;99782.57;3772661;92;21137;-86
2021/09/02 16:13:58;;;;;;;13.08;5.62;;;;;;;17.21;74.80;99781.20;3773309;93;21125;-86
2021/09/02 16:20:05;;;;;;;13.35;6.00;;;;;;;17.15;75.04;99777.85;3765802;92;21077;-86
2021/09/02 16:26:21;;;;;;;12.30;5.53;;;;;;;17.07;75.38;99780.44;3746857;93;21129;-87
2021/09/02 16:32:26;;;;;;;12.20;7.03;;;;;;;16.99;75.43;99782.44;3768544;93;21073;-86
2021/09/02 16:38:29;;;;;;;20.27;7.85;;;;;;;16.88;75.91;99784.44;3776112;91;21161;-85
2021/09/02 16:44:38;;;;;;;13.50;6.42;;;;;;;16.78;76.21;99781.11;3788017;91;21142;-85
2021/09/02 16:50:41;;;;;;;18.48;6.80;;;;;;;16.69;76.73;99767.50;3795395;91;21179;-86
2021/09/02 16:56:47;;;;;;;16.55;7.40;;;;;;;16.61;77.88;99775.59;3735629;94;21087;-85
2021/09/02 17:02:49;;;;;;;13.65;7.75;;;;;;;16.60;78.14;99768.50;3728689;93;21631;-86
2021/09/02 17:08:50;;;;;;;18.37;9.00;;;;;;;16.53;78.29;99763.77;3830752;91;21136;-86
2021/09/02 17:14:51;;;;;;;14.95;8.48;;;;;;;16.36;78.59;99758.20;3796693;92;21722;-85
2021/09/02 17:20:55;;;;;;;14.30;7.95;;;;;;;16.28;78.72;99764.91;3801565;92;21762;-85
2021/09/02 17:27:03;;;;;;;18.30;8.18;;;;;;;16.27;79.30;99765.48;3794295;92;21109;-85
2021/09/02 17:33:05;;;;;;;13.15;6.85;;;;;;;16.24;79.85;99762.75;3781971;92;21128;-86
2021/09/02 17:39:12;;;;;;;12.95;7.55;;;;;;;16.20;80.28;99772.41;3790339;92;21125;-84
2021/09/02 17:45:13;;;;;;;10.08;6.47;;;;;;;16.10;80.66;99777.93;3720553;95;21154;-85
2021/09/02 17:51:14;;;;;;;13.03;7.33;;;;;;;15.98;80.66;99778.28;3767198;93;21037;-86
2021/09/02 17:57:15;;;;;;;13.72;7.28;;;;;;;15.80;81.02;99777.47;3777298;93;21709;-85
2021/09/02 18:03:19;;;;;;;10.82;6.60;;;;;;;15.71;81.55;99779.20;3764612;92;21065;-85
2021/09/02 18:09:25;;;;;;;13.62;7.78;;;;;;;15.58;82.04;99788.43;3706616;95;21163;-85
2021/09/02 18:15:27;;;;;;;13.37;6.77;;;;;;;15.47;82.31;99786.83;3770398;93;21159;-84
2021/09/02 18:21:35;;;;;;;15.85;7.58;;;;;;;15.37;82.71;99800.75;3727485;95;21674;-86
2021/09/02 18:27:44;;;;;;;12.00;7.60;;;;;;;15.26;83.12;99804.63;3718637;94;21075;-85
2021/09/02 18:33:49;;;;;;;12.00;8.13;;;;;;;15.15;83.47;99805.95;3764212;93;21073;-84
2021/09/02 18:39:51;;;;;;;15.90;8.60;;;;;;;15.00;83.89;99804.27;3718033;93;21193;-85
2021/09/02 18:45:53;;;;;;;15.93;7.90;;;;;;;14.89;84.13;99804.02;3790095;92;21146;-85
2021/09/02 18:51:57;;;;;;;14.15;8.30;;;;;;;14.82;84.38;99813.02;3732004;91;10000160;-85
2021/09/02 18:58:01;;;;;;;14.75;7.80;;;;;;;14.78;84.74;99812.22;3829675;91;21056;-84
2021/09/02 19:04:13;;;;;;;12.95;7.67;;;;;;;14.76;84.92;99804.11;3843237;91;21657;-84
2021/09/02 19:10:12;;;;;;;12.85;7.25;;;;;;;14.74;85.33;99808.63;3825972;91;21442;-85
2021/09/02 19:16:22;;;;;;;14.68;7.60;;;;;;;14.64;85.17;99803.85;3816579;91;21587;-85
2021/09/02 19:22:25;;;;;;;17.60;8.10;;;;;;;14.67;85.45;99797.58;3778447;92;21774;-85
2021/09/02 19:28:37;;;;;;;16.55;8.75;;;;;;;14.62;85.62;99794.37;3788234;92;21247;-85
2021/09/02 19:34:45;;;;;;;13.22;7.42;;;;;;;14.56;85.88;99787.05;3839063;91;21067;-85
2021/09/02 19:40:52;;;;;;;13.93;7.92;;;;;;;14.50;86.09;99778.15;3831823;91;21156;-85
2021/09/02 19:46:55;;;;;;;10.80;6.83;;;;;;;14.43;86.23;99770.61;3802946;92;21546;-85
2021/09/02 19:52:57;;;;;;;14.98;8.85;;;;;;;14.45;86.72;99782.05;3866482;91;21945;-85
2021/09/02 19:59:02;;;;;;;13.68;7.75;;;;;;;14.47;87.02;99772.02;3804265;92;21063;-85
2021/09/02 20:05:08;;;;;;;14.50;6.03;;;;;;;14.45;87.36;99772.98;3815344;91;21126;-85
2021/09/02 20:11:12;;;;;;;12.93;7.33;;;;;;;14.35;87.42;99774.48;3749129;93;21109;-85
2021/09/02 20:17:15;;;;;;;15.55;9.48;;;;;;;14.32;87.68;99770.31;3748467;93;21114;-85
2021/09/02 20:23:18;;;;;;;17.07;10.23;;;;;;;14.18;87.71;99777.27;3850866;91;21109;-84
2021/09/02 20:29:40;;;;;;;14.87;8.38;;;;;;;13.96;88.14;99780.98;3858732;91;21136;-85
2021/09/02 20:35:54;;;;;;;15.53;9.25;;;;;;;14.08;88.52;99785.41;3807686;91;21960;-85
2021/09/02 20:48:35;;;;;;;18.13;9.37;;;;;;;14.14;89.09;99791.56;3853218;91;21930;-85
2021/09/02 20:54:44;;;;;;;12.90;7.40;;;;;;;14.10;89.13;99795.46;3850791;92;21092;-85
2021/09/02 21:00:48;;;;;;;19.90;8.55;;;;;;;14.14;89.42;99794.32;3793889;92;21157;-85
2021/09/02 21:06:50;;;;;;;17.42;8.85;;;;;;;14.07;89.54;99803.91;3853673;91;21046;-84
2021/09/02 21:12:56;;;;;;;17.42;9.38;;;;;;;13.79;89.71;99823.45;3790284;92;21806;-85
2021/09/02 21:18:59;;;;;;;17.75;9.50;;;;;;;13.56;90.37;99813.16;3785653;92;21682;-84
2021/09/02 21:25:11;;;;;;;20.23;9.38;;;;;;;13.48;90.48;99816.42;3794682;92;22140;-85
2021/09/02 21:31:21;;;;;;;19.20;11.45;;;;;;;13.49;91.53;99815.81;3749447;93;21177;-84
2021/09/02 21:37:32;;;;;;;21.55;9.53;;;;;;;13.27;91.60;99812.01;3787600;92;21066;-85
2021/09/02 21:43:47;;;;;;;19.37;9.78;;;;;;;13.41;91.73;99807.27;3845873;91;21110;-85
2021/09/02 21:49:53;;;;;;;18.40;11.12;;;;;;;13.49;91.46;99813.06;3850075;91;21100;-85
2021/09/02 21:56:08;;;;;;;21.00;11.53;;;;;;;13.21;91.46;99812.70;3845204;91;21555;-85
2021/09/02 22:02:10;;;;;;;19.90;9.40;;;;;;;13.15;92.13;99815.00;3845318;91;22315;-85
2021/09/02 22:08:20;;;;;;;16.93;9.55;;;;;;;13.19;92.14;99806.20;3843153;91;21193;-85
2021/09/02 22:14:41;;;;;;;18.77;9.83;;;;;;;13.23;91.91;99805.69;3839342;91;21574;-84
2021/09/02 22:20:54;;;;;;;12.88;8.05;;;;;;;13.25;92.25;99799.20;3817403;91;21080;-86
2021/09/02 22:26:57;;;;;;;15.05;9.55;;;;;;;13.20;91.80;99797.38;3842980;91;21144;-85
2021/09/02 22:33:08;;;;;;;15.60;9.00;;;;;;;13.08;91.93;99790.14;3846010;91;21070;-85
2021/09/02 22:39:16;;;;;;;18.92;12.03;;;;;;;13.13;92.20;99781.58;3838929;91;21927;-85
2021/09/02 22:45:19;;;;;;;16.75;10.38;;;;;;;13.03;91.75;99773.97;3829384;92;21083;-85
2021/09/02 22:51:21;;;;;;;16.15;8.95;;;;;;;12.86;92.10;99777.23;3830167;92;21491;-85
2021/09/02 22:57:22;;;;;;;17.52;8.88;;;;;;;12.85;92.12;99773.48;3833345;92;21138;-85
2021/09/02 23:03:23;;;;;;;15.38;8.58;;;;;;;12.66;92.08;99767.53;3824210;92;21243;-85
2021/09/02 23:09:55;;;;;;;16.67;9.73;;;;;;;12.62;92.67;99766.09;3721077;94;21118;-85
2021/09/02 23:16:07;;;;;;;18.23;8.90;;;;;;;12.64;93.06;99773.97;3823031;91;21087;-82
2021/09/02 23:22:12;;;;;;;13.15;7.80;;;;;;;12.50;93.06;99765.51;3811352;91;21597;-85
2021/09/02 23:28:22;;;;;;;14.75;7.92;;;;;;;12.61;93.36;99765.09;3746831;94;21068;-84
2021/09/02 23:34:25;;;;;;;20.97;8.98;;;;;;;12.59;93.06;99765.47;3799160;92;21102;-85
2021/09/02 23:40:33;;;;;;;13.88;8.78;;;;;;;12.46;93.18;99762.73;3826302;91;21227;-86
2021/09/02 23:46:35;;;;;;;20.30;7.92;;;;;;;12.40;93.07;99756.55;3837994;91;21114;-85
2021/09/02 23:52:39;;;;;;;15.25;8.93;;;;;;;12.38;92.99;99751.42;3827067;91;21148;-85
2021/09/02 23:58:40;;;;;;;13.48;8.60;;;;;;;12.35;93.23;99746.67;3833073;91;21136;-85
